createdAt,value
2023-01-26T00:01:21.892Z,16.92
2023-01-26T00:03:49.862Z,19.88
2023-01-26T00:06:19.479Z,15.68
2023-01-26T00:08:49.307Z,15.25
2023-01-26T00:11:18.472Z,16.65
2023-01-26T00:13:45.706Z,17.30
2023-01-26T00:16:15.204Z,18.25
2023-01-26T00:18:43.455Z,14.88
2023-01-26T00:21:15.069Z,15.10
2023-01-26T00:23:42.585Z,16.73
2023-01-26T00:26:11.429Z,15.20
2023-01-26T00:28:40.485Z,14.48
2023-01-26T00:32:03.764Z,15.65
2023-01-26T00:34:48.351Z,18.17
2023-01-26T00:37:15.356Z,15.40
2023-01-26T00:39:43.672Z,20.45
2023-01-26T00:42:13.954Z,16.77
2023-01-26T00:44:42.917Z,14.00
2023-01-26T00:47:13.179Z,17.85
2023-01-26T00:49:42.216Z,13.02
2023-01-26T00:52:09.481Z,12.45
2023-01-26T00:54:39.139Z,14.18
2023-01-26T00:57:06.858Z,14.00
2023-01-26T00:59:38.817Z,12.55
2023-01-26T01:02:06.087Z,14.52
2023-01-26T01:04:33.312Z,13.27
2023-01-26T01:07:00.986Z,14.25
2023-01-26T01:09:28.035Z,19.05
2023-01-26T01:11:55.070Z,13.02
2023-01-26T01:14:22.171Z,17.45
2023-01-26T01:16:49.165Z,19.35
2023-01-26T01:19:17.813Z,15.98
2023-01-26T01:21:45.770Z,16.50
2023-01-26T01:24:13.894Z,16.08
2023-01-26T01:26:41.508Z,17.75
2023-01-26T01:29:13.545Z,16.17
2023-01-26T01:31:41.908Z,14.15
2023-01-26T01:34:09.810Z,23.08
2023-01-26T01:36:36.917Z,15.85
2023-01-26T01:39:05.815Z,18.90
2023-01-26T01:41:32.865Z,16.52
2023-01-26T01:44:13.059Z,14.10
2023-01-26T01:46:46.132Z,17.33
2023-01-26T01:49:30.432Z,18.70
2023-01-26T01:52:17.705Z,17.58
2023-01-26T01:55:02.291Z,15.57
2023-01-26T01:57:44.880Z,19.40
2023-01-26T02:00:16.267Z,23.30
2023-01-26T02:02:45.244Z,17.60
2023-01-26T02:05:31.692Z,14.20
2023-01-26T02:08:00.103Z,16.42
2023-01-26T02:10:28.478Z,15.57
2023-01-26T02:12:57.050Z,16.50
2023-01-26T02:15:24.277Z,17.02
2023-01-26T02:17:53.328Z,18.15
2023-01-26T02:20:52.397Z,16.10
2023-01-26T02:23:48.127Z,18.95
2023-01-26T02:26:21.384Z,16.90
2023-01-26T02:31:18.809Z,15.30
2023-01-26T02:33:47.865Z,20.92
2023-01-26T02:36:27.828Z,18.63
2023-01-26T02:38:58.369Z,16.65
2023-01-26T02:41:44.810Z,17.05
2023-01-26T02:44:13.444Z,18.10
2023-01-26T02:46:40.491Z,16.50
2023-01-26T02:49:26.040Z,18.30
2023-01-26T02:51:53.385Z,20.23
2023-01-26T02:54:40.016Z,20.02
2023-01-26T02:57:07.023Z,19.25
2023-01-26T02:59:34.343Z,15.55
2023-01-26T03:02:01.465Z,15.10
2023-01-26T03:04:28.421Z,15.43
2023-01-26T03:06:55.723Z,16.08
2023-01-26T03:09:22.744Z,14.88
2023-01-26T03:11:50.244Z,20.35
2023-01-26T03:14:17.657Z,16.77
2023-01-26T03:16:44.954Z,17.02
2023-01-26T03:19:32.621Z,17.50
2023-01-26T03:22:18.848Z,14.95
2023-01-26T03:25:04.726Z,16.13
2023-01-26T03:27:38.249Z,16.30
2023-01-26T03:30:06.670Z,17.77
2023-01-26T03:32:33.834Z,15.18
2023-01-26T03:35:02.539Z,14.15
2023-01-26T03:37:34.623Z,16.02
2023-01-26T03:40:25.251Z,14.73
2023-01-26T03:43:10.889Z,14.32
2023-01-26T03:45:56.262Z,13.63
2023-01-26T03:48:44.246Z,15.00
2023-01-26T03:51:29.928Z,14.63
2023-01-26T03:54:16.134Z,13.68
2023-01-26T03:56:44.748Z,13.27
2023-01-26T03:59:16.774Z,17.25
2023-01-26T04:02:05.960Z,16.00
2023-01-26T04:04:53.416Z,13.52
2023-01-26T04:07:43.231Z,13.43
2023-01-26T04:10:11.064Z,11.95
2023-01-26T04:12:38.442Z,12.65
2023-01-26T04:15:35.547Z,15.20
2023-01-26T04:18:27.537Z,11.30
2023-01-26T04:21:15.141Z,11.38
2023-01-26T04:23:44.158Z,12.55
2023-01-26T04:26:11.310Z,14.93
2023-01-26T04:28:38.828Z,11.88
2023-01-26T04:31:06.461Z,10.90
2023-01-26T04:33:36.196Z,14.73
2023-01-26T04:36:05.765Z,13.38
2023-01-26T04:38:34.787Z,15.82
2023-01-26T04:41:02.925Z,13.93
2023-01-26T04:43:33.372Z,11.30
2023-01-26T04:46:03.789Z,12.88
2023-01-26T04:48:32.601Z,11.88
2023-01-26T04:51:02.530Z,10.63
2023-01-26T04:53:31.661Z,11.23
2023-01-26T04:55:59.052Z,13.38
2023-01-26T04:58:26.469Z,11.95
2023-01-26T05:00:58.487Z,12.82
2023-01-26T05:03:27.129Z,11.95
2023-01-26T05:05:55.277Z,10.40
2023-01-26T05:08:24.795Z,16.50
2023-01-26T05:10:52.721Z,15.23
2023-01-26T05:13:41.460Z,15.05
2023-01-26T05:16:18.174Z,11.38
2023-01-26T05:19:01.082Z,13.68
2023-01-26T05:21:50.157Z,12.23
2023-01-26T05:24:17.804Z,13.68
2023-01-26T05:27:23.400Z,12.40
2023-01-26T05:29:55.359Z,12.68
2023-01-26T05:32:22.648Z,11.75
2023-01-26T05:34:50.082Z,11.98
2023-01-26T05:37:17.296Z,10.05
2023-01-26T05:39:46.012Z,12.98
2023-01-26T05:42:14.305Z,12.75
2023-01-26T05:45:08.067Z,13.90
2023-01-26T05:47:36.368Z,13.68
2023-01-26T05:50:05.210Z,13.25
2023-01-26T05:52:32.684Z,11.90
2023-01-26T05:55:00.113Z,9.68
2023-01-26T05:57:27.987Z,12.50
2023-01-26T05:59:59.423Z,10.60
2023-01-26T06:02:27.528Z,15.02
2023-01-26T06:04:55.199Z,16.33
2023-01-26T06:07:22.107Z,14.57
2023-01-26T06:10:04.738Z,14.55
2023-01-26T06:12:43.198Z,12.95
2023-01-26T06:15:19.365Z,14.85
2023-01-26T06:17:48.498Z,15.70
2023-01-26T06:20:15.982Z,14.68
2023-01-26T06:22:51.258Z,11.73
2023-01-26T06:25:18.274Z,14.93
2023-01-26T06:27:45.191Z,13.50
2023-01-26T06:30:23.662Z,12.63
2023-01-26T06:32:50.822Z,12.98
2023-01-26T06:35:18.448Z,13.02
2023-01-26T06:37:50.125Z,16.30
2023-01-26T06:40:18.987Z,14.20
2023-01-26T06:42:50.298Z,13.18
2023-01-26T06:45:20.754Z,19.88
2023-01-26T06:47:51.006Z,15.20
2023-01-26T06:50:25.605Z,21.73
2023-01-26T06:52:56.627Z,21.70
2023-01-26T06:55:40.294Z,15.27
2023-01-26T06:58:27.661Z,14.13
2023-01-26T07:01:25.531Z,13.18
2023-01-26T07:03:54.122Z,16.83
2023-01-26T07:06:21.545Z,15.85
2023-01-26T07:08:48.513Z,15.77
2023-01-26T07:11:17.004Z,14.70
2023-01-26T07:13:44.460Z,14.90
2023-01-26T07:16:17.306Z,16.42
2023-01-26T07:18:44.687Z,14.00
2023-01-26T07:21:18.374Z,17.45
2023-01-26T07:23:46.630Z,24.25
2023-01-26T07:26:13.930Z,14.65
2023-01-26T07:28:41.242Z,16.98
2023-01-26T07:31:09.357Z,17.67
2023-01-26T07:33:36.287Z,16.02
2023-01-26T07:36:04.232Z,16.77
2023-01-26T07:38:32.407Z,15.70
2023-01-26T07:40:59.457Z,15.90
2023-01-26T07:43:26.490Z,15.10
2023-01-26T07:45:54.807Z,21.27
2023-01-26T07:48:24.187Z,17.63
2023-01-26T07:50:52.081Z,13.25
2023-01-26T07:53:19.583Z,18.02
2023-01-26T07:55:47.555Z,18.60
2023-01-26T07:58:23.269Z,16.73
2023-01-26T08:00:50.305Z,19.63
2023-01-26T08:03:17.248Z,18.38
2023-01-26T08:05:44.534Z,21.98
2023-01-26T08:08:11.643Z,15.80
2023-01-26T08:10:38.650Z,21.20
2023-01-26T08:13:05.644Z,19.98
2023-01-26T08:15:32.701Z,16.20
2023-01-26T08:18:03.667Z,15.60
2023-01-26T08:20:31.500Z,15.50
2023-01-26T08:23:00.420Z,14.00
2023-01-26T08:25:27.467Z,15.60
2023-01-26T08:27:55.165Z,14.20
2023-01-26T08:30:22.197Z,18.92
2023-01-26T08:32:49.182Z,17.15
2023-01-26T08:35:16.151Z,13.30
2023-01-26T08:37:43.114Z,16.88
2023-01-26T08:40:10.991Z,15.38
2023-01-26T08:42:38.067Z,13.55
2023-01-26T08:45:05.258Z,10.80
2023-01-26T08:47:32.167Z,13.70
2023-01-26T08:49:59.196Z,13.00
2023-01-26T08:52:26.086Z,12.60
2023-01-26T08:54:53.387Z,12.05
2023-01-26T08:57:20.356Z,13.07
2023-01-26T08:59:47.268Z,11.85
2023-01-26T09:02:14.318Z,12.73
2023-01-26T09:04:41.322Z,14.13
2023-01-26T09:07:08.218Z,11.75
2023-01-26T09:09:35.242Z,13.00
2023-01-26T09:12:02.302Z,13.45
2023-01-26T09:14:29.207Z,16.50
2023-01-26T09:16:56.214Z,11.25
2023-01-26T09:19:23.194Z,11.77
2023-01-26T09:21:54.137Z,14.50
2023-01-26T09:24:22.603Z,12.30
2023-01-26T09:26:49.592Z,12.40
2023-01-26T09:29:16.873Z,14.90
2023-01-26T09:31:43.953Z,10.35
2023-01-26T09:34:11.008Z,18.58
2023-01-26T09:36:39.782Z,15.88
2023-01-26T09:39:08.537Z,9.98
2023-01-26T09:42:26.676Z,12.02
2023-01-26T09:45:45.707Z,12.15
2023-01-26T09:48:25.284Z,13.50
2023-01-26T09:51:03.685Z,9.70
2023-01-26T09:54:03.357Z,11.25
2023-01-26T09:56:33.311Z,15.15
2023-01-26T09:59:35.073Z,13.85
2023-01-26T10:02:20.909Z,13.00
2023-01-26T10:04:52.190Z,11.18
2023-01-26T10:07:20.383Z,12.95
2023-01-26T10:09:52.597Z,20.17
2023-01-26T10:12:25.609Z,13.80
2023-01-26T10:14:58.884Z,10.05
2023-01-26T10:17:31.877Z,11.60
2023-01-26T10:20:06.250Z,16.33
2023-01-26T10:22:44.995Z,14.32
2023-01-26T10:25:18.661Z,15.40
2023-01-26T10:27:46.402Z,12.20
2023-01-26T10:30:15.968Z,10.52
2023-01-26T10:32:44.930Z,10.73
2023-01-26T10:35:21.015Z,7.20
2023-01-26T10:37:48.255Z,11.88
2023-01-26T10:40:15.713Z,11.35
2023-01-26T10:42:55.112Z,7.82
2023-01-26T10:45:33.664Z,14.27
2023-01-26T10:48:04.557Z,7.32
2023-01-26T10:50:32.149Z,8.35
2023-01-26T10:53:02.113Z,11.10
2023-01-26T10:55:30.602Z,8.18
2023-01-26T10:57:58.065Z,13.60
2023-01-26T11:00:28.697Z,12.52
2023-01-26T11:03:13.897Z,9.18
2023-01-26T11:05:40.943Z,8.07
2023-01-26T11:08:33.617Z,12.15
2023-01-26T11:11:01.131Z,5.28
2023-01-26T11:13:28.185Z,5.05
2023-01-26T11:16:07.370Z,6.07
2023-01-26T11:18:43.722Z,5.18
2023-01-26T11:21:18.552Z,8.25
2023-01-26T11:24:00.816Z,7.97
2023-01-26T11:27:04.851Z,7.78
2023-01-26T11:29:56.386Z,6.35
2023-01-26T11:33:00.605Z,8.30
2023-01-26T11:35:30.581Z,4.90
2023-01-26T11:38:06.581Z,8.43
2023-01-26T11:40:58.707Z,10.80
2023-01-26T11:43:34.327Z,10.50
2023-01-26T11:46:24.920Z,5.88
2023-01-26T11:49:17.164Z,3.92
2023-01-26T11:52:02.420Z,8.18
2023-01-26T11:55:05.459Z,4.13
2023-01-26T11:57:43.452Z,4.68
2023-01-26T12:00:36.584Z,4.25
2023-01-26T12:03:05.820Z,5.82
2023-01-26T12:05:44.929Z,6.93
2023-01-26T12:08:22.533Z,3.67
2023-01-26T12:11:22.847Z,8.52
2023-01-26T12:14:05.643Z,5.22
2023-01-26T12:16:50.969Z,3.58
2023-01-26T12:19:47.001Z,8.45
2023-01-26T12:22:23.191Z,6.47
2023-01-26T12:25:18.555Z,3.20
2023-01-26T12:28:16.986Z,9.40
2023-01-26T12:30:49.977Z,4.20
2023-01-26T12:33:17.107Z,4.93
2023-01-26T12:36:08.426Z,4.55
2023-01-26T12:38:47.457Z,4.90
2023-01-26T12:41:22.755Z,4.00
2023-01-26T12:44:14.750Z,7.13
2023-01-26T12:46:46.727Z,4.22
2023-01-26T12:49:27.753Z,8.32
2023-01-26T12:52:06.560Z,7.20
2023-01-26T12:54:48.535Z,4.70
2023-01-26T12:57:23.755Z,6.38
2023-01-26T12:59:51.337Z,14.35
2023-01-26T13:02:36.063Z,12.98
2023-01-26T13:05:05.113Z,3.67
2023-01-26T13:07:40.314Z,4.25
2023-01-26T13:10:11.291Z,3.88
2023-01-26T13:12:59.565Z,9.73
2023-01-26T13:15:31.936Z,7.25
2023-01-26T13:18:02.470Z,9.23
2023-01-26T13:20:29.409Z,12.93
2023-01-26T13:22:56.793Z,7.63
2023-01-26T13:25:32.950Z,10.60
2023-01-26T13:28:04.371Z,6.18
2023-01-26T13:30:31.278Z,12.80
2023-01-26T13:33:22.850Z,8.93
2023-01-26T13:35:52.726Z,11.80
2023-01-26T13:38:22.182Z,9.82
2023-01-26T13:40:50.847Z,12.10
2023-01-26T13:43:27.972Z,8.85
2023-01-26T13:46:10.386Z,13.57
2023-01-26T13:48:37.994Z,11.40
2023-01-26T13:51:06.174Z,9.75
2023-01-26T13:53:43.872Z,10.27
2023-01-26T13:56:25.862Z,7.75
2023-01-26T13:58:53.182Z,10.43
2023-01-26T14:01:20.976Z,11.68
2023-01-26T14:03:48.348Z,11.45
2023-01-26T14:06:19.170Z,9.38
2023-01-26T14:08:52.761Z,11.80
2023-01-26T14:11:23.806Z,9.55
2023-01-26T14:13:56.053Z,7.57
2023-01-26T14:16:35.895Z,13.55
2023-01-26T14:19:09.846Z,8.95
2023-01-26T14:21:53.670Z,11.23
2023-01-26T14:24:26.390Z,9.05
2023-01-26T14:26:54.388Z,15.30
2023-01-26T14:29:26.818Z,8.23
2023-01-26T14:31:58.363Z,9.68
2023-01-26T14:34:34.227Z,15.32
2023-01-26T14:37:17.097Z,8.93
2023-01-26T14:39:48.179Z,10.52
2023-01-26T14:42:19.260Z,8.15
2023-01-26T14:44:47.130Z,15.18
2023-01-26T14:47:20.667Z,13.57
2023-01-26T14:50:04.735Z,10.70
2023-01-26T14:52:42.900Z,10.33
2023-01-26T14:55:28.853Z,11.13
2023-01-26T14:57:58.543Z,12.27
2023-01-26T15:00:35.676Z,8.65
2023-01-26T15:03:11.759Z,15.60
2023-01-26T15:05:42.298Z,9.07
2023-01-26T15:08:21.784Z,10.95
2023-01-26T15:11:21.618Z,12.52
2023-01-26T15:13:54.395Z,9.65
2023-01-26T15:16:23.965Z,14.05
2023-01-26T15:19:07.458Z,10.05
2023-01-26T15:21:40.141Z,8.23
2023-01-26T15:24:14.007Z,8.35
2023-01-26T15:26:41.796Z,10.93
2023-01-26T15:29:37.810Z,9.65
2023-01-26T15:32:05.240Z,11.82
2023-01-26T15:34:42.242Z,16.15
2023-01-26T15:37:31.662Z,18.63
2023-01-26T15:39:58.695Z,17.42
2023-01-26T15:42:33.055Z,8.52
2023-01-26T15:45:00.150Z,14.70
2023-01-26T15:47:27.256Z,12.35
2023-01-26T15:49:54.216Z,10.68
2023-01-26T15:52:25.804Z,10.30
2023-01-26T15:54:54.011Z,15.50
2023-01-26T15:57:20.957Z,9.35
2023-01-26T15:59:48.134Z,10.13
2023-01-26T16:02:17.482Z,11.65
2023-01-26T16:04:45.307Z,7.95
2023-01-26T16:07:17.303Z,9.20
2023-01-26T16:09:44.421Z,11.98
2023-01-26T16:12:30.475Z,10.30
2023-01-26T16:14:58.738Z,9.23
2023-01-26T16:17:25.642Z,10.80
2023-01-26T16:19:52.607Z,17.30
2023-01-26T16:22:19.984Z,8.27
2023-01-26T16:24:47.307Z,10.65
2023-01-26T16:27:14.193Z,13.20
2023-01-26T16:29:41.192Z,10.93
2023-01-26T16:32:28.406Z,9.77
2023-01-26T16:34:55.466Z,18.25
2023-01-26T16:37:22.471Z,11.77
2023-01-26T16:39:49.403Z,15.07
2023-01-26T16:42:20.251Z,13.73
2023-01-26T16:44:47.887Z,78.50
2023-01-26T16:47:14.841Z,10.70
2023-01-26T16:49:41.890Z,12.65
2023-01-26T16:52:09.910Z,11.20
2023-01-26T16:55:11.829Z,11.18
2023-01-26T16:57:36.707Z,9.13
2023-01-26T17:00:04.581Z,15.63
2023-01-26T17:02:34.868Z,10.63
2023-01-26T17:05:01.921Z,11.55
2023-01-26T17:07:28.818Z,14.60
2023-01-26T17:09:55.732Z,8.85
2023-01-26T17:12:22.681Z,11.93
2023-01-26T17:14:49.910Z,9.57
2023-01-26T17:17:16.887Z,11.85
2023-01-26T17:19:43.808Z,11.00
2023-01-26T17:22:11.084Z,12.02
2023-01-26T17:24:38.017Z,17.08
2023-01-26T17:27:05.458Z,15.98
2023-01-26T17:29:33.904Z,14.75
2023-01-26T17:32:01.074Z,16.05
2023-01-26T17:34:28.597Z,14.45
2023-01-26T17:36:56.001Z,7.50
2023-01-26T17:39:24.385Z,16.35
2023-01-26T17:41:51.485Z,13.27
2023-01-26T17:44:18.464Z,12.88
2023-01-26T17:46:45.601Z,11.05
2023-01-26T17:49:12.503Z,11.13
2023-01-26T17:51:40.157Z,13.65
2023-01-26T17:54:07.190Z,14.05
2023-01-26T17:56:34.213Z,14.48
2023-01-26T17:59:01.386Z,14.70
2023-01-26T18:01:28.504Z,11.98
2023-01-26T18:03:55.535Z,16.63
2023-01-26T18:06:22.543Z,14.43
2023-01-26T18:08:49.659Z,15.32
2023-01-26T18:11:17.495Z,18.25
2023-01-26T18:13:44.893Z,14.25
2023-01-26T18:16:23.179Z,17.83
2023-01-26T18:18:55.605Z,14.77
2023-01-26T18:21:25.349Z,13.95
2023-01-26T18:23:55.293Z,18.40
2023-01-26T18:26:26.224Z,19.42
2023-01-26T18:28:53.915Z,19.15
2023-01-26T18:31:24.040Z,14.70
2023-01-26T18:33:51.249Z,19.08
2023-01-26T18:36:20.505Z,18.73
2023-01-26T18:39:02.593Z,19.15
2023-01-26T18:41:33.305Z,20.10
2023-01-26T18:44:03.150Z,17.05
2023-01-26T18:46:31.605Z,21.95
2023-01-26T18:49:01.026Z,16.75
2023-01-26T18:51:29.931Z,14.82
2023-01-26T18:53:57.692Z,20.58
2023-01-26T18:56:24.715Z,15.35
2023-01-26T18:58:54.041Z,12.45
2023-01-26T19:01:22.033Z,14.07
2023-01-26T19:03:54.241Z,15.43
2023-01-26T19:06:22.716Z,18.73
2023-01-26T19:08:58.952Z,13.70
2023-01-26T19:11:28.154Z,22.58
2023-01-26T19:13:55.750Z,14.55
2023-01-26T19:16:23.322Z,13.07
2023-01-26T19:18:52.014Z,18.83
2023-01-26T19:21:24.691Z,14.15
2023-01-26T19:23:54.137Z,12.07
2023-01-26T19:26:26.218Z,11.75
2023-01-26T19:28:54.249Z,20.23
2023-01-26T19:31:22.026Z,21.98
2023-01-26T19:34:00.487Z,27.20
2023-01-26T19:36:29.433Z,19.20
2023-01-26T19:38:57.017Z,18.13
2023-01-26T19:41:25.444Z,25.65
2023-01-26T19:43:52.520Z,19.60
2023-01-26T19:46:20.634Z,17.33
2023-01-26T19:48:48.308Z,14.82
2023-01-26T19:51:18.704Z,24.30
2023-01-26T19:53:47.962Z,19.33
2023-01-26T19:56:20.663Z,20.50
2023-01-26T19:58:51.609Z,20.98
2023-01-26T20:01:19.716Z,20.13
2023-01-26T20:04:07.914Z,20.85
2023-01-26T20:06:36.134Z,22.40
2023-01-26T20:09:05.254Z,22.67
2023-01-26T20:11:32.271Z,22.05
2023-01-26T20:14:08.825Z,26.33
2023-01-26T20:16:36.181Z,27.58
2023-01-26T20:19:04.087Z,24.90
2023-01-26T20:21:31.978Z,24.90
2023-01-26T20:24:05.223Z,25.63
2023-01-26T20:26:33.903Z,24.33
2023-01-26T20:29:00.960Z,29.63
2023-01-26T20:31:28.169Z,24.63
2023-01-26T20:33:56.008Z,23.92
2023-01-26T20:36:25.541Z,29.90
2023-01-26T20:38:52.958Z,27.20
2023-01-26T20:41:25.652Z,25.52
2023-01-26T20:44:02.337Z,29.17
2023-01-26T20:46:35.486Z,26.15
2023-01-26T20:49:03.954Z,41.13
2023-01-26T20:51:41.128Z,28.58
2023-01-26T20:54:17.379Z,31.65
2023-01-26T20:56:45.908Z,24.35
2023-01-26T20:59:22.819Z,26.95
2023-01-26T21:01:49.839Z,29.80
2023-01-26T21:04:17.200Z,33.08
2023-01-26T21:06:47.337Z,30.52
2023-01-26T21:09:14.571Z,32.75
2023-01-26T21:11:44.386Z,39.63
2023-01-26T21:14:13.709Z,38.13
2023-01-26T21:16:45.668Z,31.50
2023-01-26T21:19:13.004Z,30.02
2023-01-26T21:21:39.979Z,28.73
2023-01-26T21:24:15.774Z,33.03
2023-01-26T21:26:48.086Z,28.45
2023-01-26T21:29:18.548Z,25.98
2023-01-26T21:31:45.992Z,33.97
2023-01-26T21:34:15.049Z,28.80
2023-01-26T21:36:42.147Z,26.90
2023-01-26T21:39:13.209Z,32.20
2023-01-26T21:41:59.267Z,29.73
2023-01-26T21:44:31.580Z,25.85
2023-01-26T21:47:04.219Z,27.50
2023-01-26T21:49:33.553Z,23.67
2023-01-26T21:52:18.960Z,30.63
2023-01-26T21:54:46.331Z,35.03
2023-01-26T21:57:31.901Z,25.70
2023-01-26T21:59:58.988Z,35.13
2023-01-26T22:02:26.515Z,24.85
2023-01-26T22:04:53.532Z,30.90
2023-01-26T22:07:20.763Z,25.15
2023-01-26T22:09:48.375Z,30.75
2023-01-26T22:12:15.589Z,28.15
2023-01-26T22:14:42.607Z,28.02
2023-01-26T22:17:09.834Z,29.77
2023-01-26T22:19:36.883Z,25.02
2023-01-26T22:22:04.502Z,28.60
2023-01-26T22:24:31.989Z,26.88
2023-01-26T22:26:59.162Z,30.55
2023-01-26T22:29:26.677Z,31.13
2023-01-26T22:31:54.355Z,31.67
2023-01-26T22:34:21.490Z,28.42
2023-01-26T22:36:49.093Z,32.17
2023-01-26T22:39:16.245Z,28.55
2023-01-26T22:41:46.327Z,29.58
2023-01-26T22:44:15.561Z,27.63
2023-01-26T22:46:42.677Z,26.45
2023-01-26T22:49:10.480Z,25.65
2023-01-26T22:51:41.411Z,27.48
2023-01-26T22:54:08.575Z,33.97
2023-01-26T22:56:35.740Z,21.60
2023-01-26T22:59:02.934Z,30.30
2023-01-26T23:01:32.217Z,30.02
2023-01-26T23:04:00.360Z,26.63
2023-01-26T23:06:27.891Z,24.48
2023-01-26T23:08:55.465Z,26.02
2023-01-26T23:11:25.476Z,28.80
2023-01-26T23:13:54.365Z,29.65
2023-01-26T23:16:23.768Z,24.80
2023-01-26T23:18:54.931Z,21.00
2023-01-26T23:21:22.327Z,28.30
2023-01-26T23:23:49.596Z,32.03
2023-01-26T23:26:16.856Z,27.42
2023-01-26T23:28:44.824Z,25.27
2023-01-26T23:31:13.949Z,23.85
2023-01-26T23:33:41.892Z,25.45
2023-01-26T23:36:11.549Z,23.80
2023-01-26T23:38:38.999Z,23.17
2023-01-26T23:41:08.604Z,28.08
2023-01-26T23:43:36.023Z,24.73
2023-01-26T23:46:04.968Z,24.13
2023-01-26T23:48:32.391Z,27.33
2023-01-26T23:51:01.236Z,27.10
2023-01-26T23:53:29.129Z,25.60
2023-01-26T23:55:57.663Z,22.40
2023-01-26T23:58:25.123Z,28.25
